Terminal Aerodrome Forecast
Issued by NWS

Home | Current Version | Previous Version | Text Only | Print | Product List | Glossary On
Versions: 1 2 3 4 5 6 7 8 9 10 11 12 13 14 15
000
FTUS44 KTSA 122300
TAFBVO
TAF
KBVO 122320Z 1300/1324 19005KT P6SM SKC
     FM131500 24007KT P6SM SKC
     FM132100 18005KT P6SM SKC=

USA.gov is the U.S. government's official web portal to all federal, state and local government web resources and services.